createdAt,value
2017-04-27T00:00:17.151Z,12
2017-04-27T00:01:29.925Z,12
2017-04-27T00:02:42.746Z,12
2017-04-27T00:03:55.661Z,12
2017-04-27T00:05:08.694Z,12
2017-04-27T00:06:20.993Z,4
2017-04-27T00:07:33.272Z,12
2017-04-27T00:08:46.022Z,12
2017-04-27T00:09:58.975Z,12
2017-04-27T00:11:11.820Z,12
2017-04-27T00:12:24.710Z,8
2017-04-27T00:13:37.589Z,4
2017-04-27T00:14:50.669Z,12
2017-04-27T00:16:03.558Z,16
2017-04-27T00:17:15.471Z,8
2017-04-27T00:18:28.361Z,12
2017-04-27T00:19:41.243Z,8
2017-04-27T00:20:54.330Z,8
2017-04-27T00:22:06.719Z,16
2017-04-27T00:23:19.596Z,12
2017-04-27T00:24:32.470Z,8
2017-04-27T00:25:44.863Z,12
2017-04-27T00:26:58.061Z,16
2017-04-27T00:28:10.950Z,8
2017-04-27T00:29:23.848Z,12
2017-04-27T00:30:36.750Z,12
2017-04-27T00:31:49.170Z,8
2017-04-27T00:33:02.054Z,8
2017-04-27T00:34:14.457Z,8
2017-04-27T00:35:27.336Z,8
2017-04-27T00:36:40.221Z,12
2017-04-27T00:37:53.114Z,16
2017-04-27T00:39:06.005Z,12
2017-04-27T00:40:18.413Z,12
2017-04-27T00:41:31.310Z,8
2017-04-27T00:42:44.208Z,4
2017-04-27T00:43:57.101Z,12
2017-04-27T00:45:09.999Z,12
2017-04-27T00:46:22.879Z,12
2017-04-27T00:47:35.771Z,12
2017-04-27T00:48:48.667Z,8
2017-04-27T00:50:01.062Z,12
2017-04-27T00:51:13.459Z,12
2017-04-27T00:52:26.345Z,12
2017-04-27T00:53:39.223Z,12
2017-04-27T00:54:52.107Z,12
2017-04-27T00:56:04.992Z,8
2017-04-27T00:57:16.899Z,12
2017-04-27T00:58:29.778Z,12
2017-04-27T00:59:42.665Z,12
2017-04-27T01:00:55.548Z,12
2017-04-27T01:02:08.432Z,12
2017-04-27T01:03:20.338Z,12
2017-04-27T01:04:32.732Z,12
2017-04-27T01:05:45.621Z,12
2017-04-27T01:06:58.013Z,12
2017-04-27T01:08:10.414Z,12
2017-04-27T01:09:22.818Z,12
2017-04-27T01:10:49.775Z,12
2017-04-27T01:12:02.689Z,12
2017-04-27T01:13:15.580Z,12
2017-04-27T01:15:55.461Z,12
2017-04-27T01:17:08.377Z,12
2017-04-27T01:18:21.304Z,8
2017-04-27T01:19:33.711Z,12
2017-04-27T01:20:46.624Z,12
2017-04-27T01:21:59.563Z,12
2017-04-27T01:23:12.475Z,12
2017-04-27T01:24:24.419Z,12
2017-04-27T01:25:37.335Z,12
2017-04-27T01:26:50.253Z,12
2017-04-27T01:28:03.151Z,4
2017-04-27T01:29:16.078Z,4
2017-04-27T01:30:28.983Z,4
2017-04-27T01:31:42.227Z,12
2017-04-27T01:32:55.157Z,12
2017-04-27T01:34:08.083Z,12
2017-04-27T01:35:20.494Z,12
2017-04-27T01:36:33.581Z,12
2017-04-27T01:37:46.483Z,12
2017-04-27T01:38:59.593Z,12
2017-04-27T01:40:11.509Z,12
2017-04-27T01:41:24.454Z,12
2017-04-27T01:42:37.576Z,12
2017-04-27T01:43:50.519Z,12
2017-04-27T01:45:02.949Z,12
2017-04-27T01:46:14.868Z,12
2017-04-27T01:47:27.775Z,12
2017-04-27T01:48:40.698Z,12
2017-04-27T01:49:53.618Z,12
2017-04-27T01:51:06.547Z,8
2017-04-27T01:52:18.975Z,12
2017-04-27T01:53:31.401Z,4
2017-04-27T01:54:44.334Z,4
2017-04-27T01:55:57.248Z,4
2017-04-27T01:57:10.182Z,4
2017-04-27T01:58:22.605Z,4
2017-04-27T01:59:35.549Z,12
2017-04-27T02:00:48.470Z,12
2017-04-27T02:02:01.412Z,12
2017-04-27T02:03:14.339Z,12
2017-04-27T02:04:27.435Z,12
2017-04-27T02:05:40.350Z,12
2017-04-27T02:06:53.275Z,12
2017-04-27T02:08:06.209Z,12
2017-04-27T02:09:19.129Z,4
2017-04-27T02:10:32.048Z,8
2017-04-27T02:11:44.486Z,4
2017-04-27T02:12:57.407Z,4
2017-04-27T02:14:10.323Z,12
2017-04-27T02:15:23.262Z,16
2017-04-27T02:16:36.179Z,16
2017-04-27T02:17:49.112Z,12
2017-04-27T02:19:02.246Z,4
2017-04-27T02:20:15.461Z,4
2017-04-27T02:21:28.379Z,12
2017-04-27T02:22:41.296Z,12
2017-04-27T02:23:54.255Z,12
2017-04-27T02:25:07.161Z,8
2017-04-27T02:26:20.160Z,4
2017-04-27T02:27:32.928Z,4
2017-04-27T02:28:45.711Z,12
2017-04-27T02:29:58.528Z,16
2017-04-27T02:31:11.497Z,12
2017-04-27T02:32:24.272Z,12
2017-04-27T02:33:36.543Z,12
2017-04-27T02:34:49.321Z,12
2017-04-27T02:36:01.612Z,12
2017-04-27T02:37:14.391Z,12
2017-04-27T02:38:27.156Z,12
2017-04-27T02:39:39.457Z,12
2017-04-27T02:40:52.245Z,8
2017-04-27T02:42:05.230Z,12
2017-04-27T02:43:18.014Z,12
2017-04-27T02:44:30.769Z,8
2017-04-27T02:45:43.512Z,12
2017-04-27T02:46:56.254Z,4
2017-04-27T02:48:08.523Z,12
2017-04-27T02:49:20.782Z,16
2017-04-27T02:50:33.538Z,12
2017-04-27T02:51:46.289Z,12
2017-04-27T02:52:59.050Z,12
2017-04-27T02:54:11.803Z,12
2017-04-27T02:55:24.067Z,8
2017-04-27T02:56:36.810Z,12
2017-04-27T02:59:15.910Z,8
2017-04-27T03:00:28.183Z,8
2017-04-27T03:01:40.449Z,4
2017-04-27T03:02:53.199Z,12
2017-04-27T03:04:19.544Z,8
2017-04-27T03:05:32.310Z,4
2017-04-27T03:06:45.062Z,12
2017-04-27T03:07:57.328Z,8
2017-04-27T03:09:10.272Z,4
2017-04-27T03:10:23.023Z,4
2017-04-27T03:11:35.290Z,12
2017-04-27T03:12:48.033Z,12
2017-04-27T03:14:00.786Z,12
2017-04-27T03:16:13.313Z,4
2017-04-27T03:17:26.406Z,4
2017-04-27T03:18:39.282Z,12
2017-04-27T03:19:52.457Z,16
2017-04-27T03:21:05.012Z,12
2017-04-27T03:22:17.859Z,8
2017-04-27T03:23:31.593Z,8
2017-04-27T03:24:44.939Z,8
2017-04-27T03:25:57.816Z,12
2017-04-27T03:27:10.698Z,12
2017-04-27T03:28:23.092Z,4
2017-04-27T03:29:35.486Z,12
2017-04-27T03:30:48.370Z,12
2017-04-27T03:32:00.757Z,12
2017-04-27T03:33:12.661Z,16
2017-04-27T03:34:25.539Z,12
2017-04-27T03:35:37.925Z,4
2017-04-27T03:36:50.805Z,4
2017-04-27T03:38:03.686Z,4
2017-04-27T03:39:16.563Z,8
2017-04-27T03:40:28.955Z,16
2017-04-27T03:41:42.133Z,12
2017-04-27T03:42:55.018Z,12
2017-04-27T03:44:07.901Z,12
2017-04-27T03:45:20.805Z,12
2017-04-27T03:46:33.931Z,12
2017-04-27T03:47:46.806Z,12
2017-04-27T03:48:59.687Z,12
2017-04-27T03:50:12.076Z,12
2017-04-27T03:51:24.462Z,8
2017-04-27T03:52:36.851Z,8
2017-04-27T03:53:49.740Z,8
2017-04-27T03:55:02.665Z,8
2017-04-27T03:56:15.587Z,8
2017-04-27T03:57:28.509Z,8
2017-04-27T03:58:41.431Z,8
2017-04-27T03:59:54.355Z,8
2017-04-27T04:01:07.278Z,4
2017-04-27T04:02:20.213Z,16
2017-04-27T04:03:33.143Z,12
2017-04-27T04:04:46.065Z,12
2017-04-27T04:05:58.988Z,12
2017-04-27T04:07:11.416Z,4
2017-04-27T04:08:24.338Z,4
2017-04-27T04:09:36.774Z,4
2017-04-27T04:10:49.698Z,12
2017-04-27T04:12:02.623Z,16
2017-04-27T04:13:15.543Z,12
2017-04-27T04:14:28.714Z,8
2017-04-27T04:15:41.634Z,12
2017-04-27T04:16:54.554Z,4
2017-04-27T04:18:07.477Z,4
2017-04-27T04:19:20.650Z,4
2017-04-27T04:20:33.576Z,16
2017-04-27T04:21:46.494Z,12
2017-04-27T04:22:58.926Z,12
2017-04-27T04:24:11.849Z,12
2017-04-27T04:25:25.023Z,12
2017-04-27T04:26:37.945Z,12
2017-04-27T04:27:50.870Z,4
2017-04-27T04:29:03.327Z,12
2017-04-27T04:30:15.770Z,12
2017-04-27T04:31:28.699Z,12
2017-04-27T04:32:41.621Z,12
2017-04-27T04:33:54.543Z,12
2017-04-27T04:35:07.463Z,12
2017-04-27T04:36:19.895Z,12
2017-04-27T04:37:32.815Z,12
2017-04-27T04:38:45.741Z,12
2017-04-27T04:39:58.671Z,12
2017-04-27T04:41:11.894Z,12
2017-04-27T04:42:24.812Z,12
2017-04-27T04:43:37.732Z,12
2017-04-27T04:44:50.654Z,12
2017-04-27T04:46:03.581Z,8
2017-04-27T04:47:16.500Z,12
2017-04-27T04:48:29.422Z,12
2017-04-27T04:49:41.858Z,8
2017-04-27T04:50:54.784Z,8
2017-04-27T04:52:07.712Z,12
2017-04-27T04:53:20.145Z,12
2017-04-27T04:54:33.069Z,12
2017-04-27T04:55:45.998Z,12
2017-04-27T04:56:58.922Z,12
2017-04-27T04:58:12.096Z,12
2017-04-27T04:59:25.035Z,12
2017-04-27T05:00:37.466Z,12
2017-04-27T05:01:50.418Z,8
2017-04-27T05:03:03.343Z,8
2017-04-27T05:04:16.276Z,8
2017-04-27T05:05:29.203Z,8
2017-04-27T05:06:42.091Z,16
2017-04-27T05:07:54.855Z,12
2017-04-27T05:09:07.135Z,12
2017-04-27T05:10:19.883Z,8
2017-04-27T05:11:32.626Z,12
2017-04-27T05:12:45.377Z,12
2017-04-27T05:13:58.144Z,16
2017-04-27T05:15:11.136Z,12
2017-04-27T05:16:23.880Z,8
2017-04-27T05:17:36.622Z,8
2017-04-27T05:18:48.902Z,4
2017-04-27T05:20:01.954Z,4
2017-04-27T05:21:13.737Z,4
2017-04-27T05:22:26.486Z,12
2017-04-27T05:23:39.235Z,16
2017-04-27T05:24:51.982Z,12
2017-04-27T05:26:04.832Z,12
2017-04-27T05:27:17.233Z,12
2017-04-27T05:28:29.671Z,12
2017-04-27T05:29:42.559Z,12
2017-04-27T05:30:55.685Z,12
2017-04-27T05:32:08.565Z,12
2017-04-27T05:33:20.953Z,12
2017-04-27T05:34:33.832Z,12
2017-04-27T05:35:46.712Z,12
2017-04-27T05:36:59.839Z,12
2017-04-27T05:38:12.722Z,12
2017-04-27T05:39:25.110Z,8
2017-04-27T05:40:37.986Z,8
2017-04-27T05:41:50.372Z,12
2017-04-27T05:43:03.249Z,12
2017-04-27T05:44:15.153Z,12
2017-04-27T05:45:28.030Z,12
2017-04-27T05:46:40.909Z,12
2017-04-27T05:47:53.783Z,8
2017-04-27T05:49:06.660Z,12
2017-04-27T05:50:19.537Z,12
2017-04-27T05:51:32.412Z,12
2017-04-27T05:52:45.291Z,12
2017-04-27T05:53:58.175Z,12
2017-04-27T05:55:11.051Z,12
2017-04-27T05:56:23.925Z,12
2017-04-27T05:57:36.321Z,12
2017-04-27T05:58:49.499Z,12
2017-04-27T06:00:02.374Z,12
2017-04-27T06:01:15.254Z,12
2017-04-27T06:02:28.139Z,4
2017-04-27T06:03:40.782Z,4
2017-04-27T06:04:53.664Z,4
2017-04-27T06:06:06.543Z,16
2017-04-27T06:07:18.943Z,16
2017-04-27T06:08:31.825Z,12
2017-04-27T06:09:44.703Z,12
2017-04-27T06:10:57.480Z,4
2017-04-27T06:12:10.232Z,4
2017-04-27T06:13:22.535Z,8
2017-04-27T06:14:34.808Z,12
2017-04-27T06:15:47.559Z,12
2017-04-27T06:17:00.296Z,12
2017-04-27T06:18:13.162Z,12
2017-04-27T06:19:26.084Z,12
2017-04-27T06:20:38.518Z,12
2017-04-27T06:21:51.439Z,8
2017-04-27T06:23:04.359Z,12
2017-04-27T06:24:17.281Z,8
2017-04-27T06:25:30.202Z,4
2017-04-27T06:26:43.129Z,12
2017-04-27T06:27:56.056Z,12
2017-04-27T06:29:08.984Z,12
2017-04-27T06:30:21.663Z,12
2017-04-27T06:31:34.092Z,12
2017-04-27T06:32:47.013Z,12
2017-04-27T06:33:59.934Z,12
2017-04-27T06:35:12.887Z,12
2017-04-27T06:36:25.316Z,12
2017-04-27T06:37:38.237Z,12
2017-04-27T06:38:51.161Z,12
2017-04-27T06:40:04.123Z,8
2017-04-27T06:41:16.554Z,8
2017-04-27T06:42:29.731Z,8
2017-04-27T06:43:42.650Z,12
2017-04-27T06:44:55.566Z,12
2017-04-27T06:46:08.493Z,12
2017-04-27T06:47:21.223Z,12
2017-04-27T06:48:33.654Z,12
2017-04-27T06:49:46.576Z,12
2017-04-27T06:50:59.499Z,12
2017-04-27T06:52:12.416Z,8
2017-04-27T06:53:25.587Z,8
2017-04-27T06:54:38.511Z,8
2017-04-27T06:55:51.534Z,12
2017-04-27T06:57:04.591Z,16
2017-04-27T06:58:17.658Z,16
2017-04-27T06:59:30.226Z,12
2017-04-27T07:00:42.787Z,12
2017-04-27T07:01:55.854Z,8
2017-04-27T07:03:08.917Z,8
2017-04-27T07:04:21.976Z,12
2017-04-27T07:05:35.043Z,12
2017-04-27T07:06:48.106Z,12
2017-04-27T07:08:01.177Z,12
2017-04-27T07:09:14.240Z,12
2017-04-27T07:10:26.798Z,12
2017-04-27T07:11:39.857Z,12
2017-04-27T07:12:52.415Z,16
2017-04-27T07:14:05.474Z,8
2017-04-27T07:15:18.033Z,4
2017-04-27T07:16:31.098Z,12
2017-04-27T07:17:44.164Z,12
2017-04-27T07:18:57.240Z,12
2017-04-27T07:20:10.051Z,12
2017-04-27T07:21:22.611Z,12
2017-04-27T07:22:35.668Z,12
2017-04-27T07:23:48.731Z,12
2017-04-27T07:25:01.790Z,12
2017-04-27T07:26:14.353Z,12
2017-04-27T07:27:27.420Z,12
2017-04-27T07:28:40.357Z,12
2017-04-27T07:29:53.235Z,12
2017-04-27T07:31:06.369Z,8
2017-04-27T07:32:18.756Z,12
2017-04-27T07:33:31.630Z,12
2017-04-27T07:34:44.511Z,12
2017-04-27T07:35:56.905Z,8
2017-04-27T07:37:09.783Z,12
2017-04-27T07:38:21.685Z,8
2017-04-27T07:39:34.563Z,8
2017-04-27T07:40:47.362Z,12
2017-04-27T07:42:00.403Z,16
2017-04-27T07:43:13.148Z,12
2017-04-27T07:44:25.904Z,8
2017-04-27T07:45:38.652Z,4
2017-04-27T07:46:51.391Z,12
2017-04-27T07:48:04.137Z,12
2017-04-27T07:49:16.408Z,12
2017-04-27T07:50:29.180Z,12
2017-04-27T07:51:41.933Z,12
2017-04-27T07:52:54.678Z,12
2017-04-27T07:54:07.424Z,16
2017-04-27T07:55:19.213Z,12
2017-04-27T07:56:31.967Z,8
2017-04-27T07:57:44.713Z,12
2017-04-27T07:58:57.709Z,12
2017-04-27T08:00:10.454Z,12
2017-04-27T08:01:23.195Z,12
2017-04-27T08:02:35.937Z,12
2017-04-27T08:03:48.035Z,12
2017-04-27T08:05:00.782Z,12
2017-04-27T08:06:13.042Z,12
2017-04-27T08:07:25.428Z,12
2017-04-27T08:08:37.858Z,12
2017-04-27T08:09:50.782Z,12
2017-04-27T08:11:03.227Z,12
2017-04-27T08:12:16.150Z,12
2017-04-27T08:13:28.586Z,12
2017-04-27T08:14:41.022Z,12
2017-04-27T08:15:53.939Z,12
2017-04-27T08:17:06.868Z,12
2017-04-27T08:18:18.812Z,8
2017-04-27T08:19:31.247Z,4
2017-04-27T08:20:44.168Z,4
2017-04-27T08:21:57.091Z,12
2017-04-27T08:23:10.022Z,8
2017-04-27T08:24:21.962Z,12
2017-04-27T08:25:35.134Z,4
2017-04-27T08:26:48.058Z,12
2017-04-27T08:28:00.995Z,12
2017-04-27T08:29:13.922Z,12
2017-04-27T08:30:25.866Z,12
2017-04-27T08:31:38.603Z,12
2017-04-27T08:32:51.049Z,4
2017-04-27T08:34:03.974Z,12
2017-04-27T08:35:15.915Z,8
2017-04-27T08:36:28.604Z,4
2017-04-27T08:37:41.033Z,12
2017-04-27T08:38:53.954Z,8
2017-04-27T08:40:06.879Z,12
2017-04-27T08:41:18.328Z,8
2017-04-27T08:42:31.007Z,8
2017-04-27T08:43:43.935Z,4
2017-04-27T08:44:56.862Z,12
2017-04-27T08:46:08.806Z,4
2017-04-27T08:47:21.489Z,12
2017-04-27T08:48:33.430Z,8
2017-04-27T08:49:45.873Z,12
2017-04-27T08:50:58.799Z,12
2017-04-27T08:52:10.738Z,4
2017-04-27T08:53:22.978Z,4
2017-04-27T08:54:34.920Z,4
2017-04-27T08:55:47.845Z,16
2017-04-27T08:57:00.762Z,12
2017-04-27T08:58:13.984Z,4
2017-04-27T08:59:25.923Z,12
2017-04-27T09:00:38.844Z,12
2017-04-27T09:01:51.278Z,8
2017-04-27T09:03:03.709Z,8
2017-04-27T09:04:15.898Z,4
2017-04-27T09:05:28.825Z,4
2017-04-27T09:06:41.253Z,16
2017-04-27T09:07:53.686Z,12
2017-04-27T09:09:06.865Z,4
2017-04-27T09:10:19.296Z,4
2017-04-27T09:11:32.219Z,12
2017-04-27T09:12:45.145Z,16
2017-04-27T09:13:57.585Z,12
2017-04-27T09:15:10.756Z,12
2017-04-27T09:16:22.696Z,12
2017-04-27T09:17:35.129Z,12
2017-04-27T09:18:48.054Z,12
2017-04-27T09:20:00.795Z,12
2017-04-27T09:21:13.721Z,4
2017-04-27T09:22:26.162Z,12
2017-04-27T09:23:39.089Z,16
2017-04-27T09:24:51.047Z,12
2017-04-27T09:26:03.972Z,12
2017-04-27T09:27:16.420Z,8
2017-04-27T09:28:28.851Z,16
2017-04-27T09:29:41.278Z,20
2017-04-27T09:30:54.200Z,12
2017-04-27T09:32:07.119Z,16
2017-04-27T09:33:19.554Z,8
2017-04-27T09:34:32.482Z,8
2017-04-27T09:35:44.910Z,20
2017-04-27T09:36:58.079Z,20
2017-04-27T09:38:10.512Z,20
2017-04-27T09:39:22.943Z,20
2017-04-27T09:40:35.374Z,16
2017-04-27T09:41:48.299Z,20
2017-04-27T09:43:00.737Z,12
2017-04-27T09:44:13.663Z,16
2017-04-27T09:45:26.613Z,12
2017-04-27T09:46:39.535Z,12
2017-04-27T09:48:06.500Z,12
2017-04-27T09:49:19.440Z,16
2017-04-27T09:50:32.248Z,16
2017-04-27T09:51:44.518Z,16
2017-04-27T09:52:56.788Z,12
2017-04-27T09:54:09.538Z,12
2017-04-27T09:55:21.414Z,12
2017-04-27T09:56:33.311Z,16
2017-04-27T09:57:46.223Z,16
2017-04-27T09:58:58.615Z,16
2017-04-27T10:00:11.493Z,20
2017-04-27T10:01:24.372Z,20
2017-04-27T10:02:37.250Z,20
2017-04-27T10:03:50.131Z,24
2017-04-27T10:05:02.530Z,24
2017-04-27T10:06:15.407Z,24
2017-04-27T10:07:28.287Z,24
2017-04-27T10:08:41.171Z,28
2017-04-27T10:09:54.050Z,28
2017-04-27T10:11:06.933Z,28
2017-04-27T10:12:19.809Z,32
2017-04-27T10:13:32.685Z,36
2017-04-27T10:14:45.079Z,36
2017-04-27T10:15:57.960Z,44
2017-04-27T10:17:10.833Z,48
2017-04-27T10:18:23.220Z,44
2017-04-27T10:19:35.614Z,44
2017-04-27T10:20:48.498Z,48
2017-04-27T10:22:00.894Z,52
2017-04-27T10:23:13.777Z,64
2017-04-27T10:24:26.681Z,80
2017-04-27T10:25:39.556Z,100
2017-04-27T10:26:52.465Z,116
2017-04-27T10:28:05.343Z,120
2017-04-27T10:29:17.246Z,116
2017-04-27T10:30:30.422Z,116
2017-04-27T10:31:43.303Z,112
2017-04-27T10:32:56.180Z,132
2017-04-27T10:34:09.056Z,132
2017-04-27T10:35:20.961Z,132
2017-04-27T10:36:33.609Z,116
2017-04-27T10:37:46.485Z,96
2017-04-27T10:38:59.360Z,76
2017-04-27T10:40:11.221Z,100
2017-04-27T10:41:23.960Z,128
2017-04-27T10:42:36.229Z,152
2017-04-27T10:43:48.500Z,180
2017-04-27T10:45:01.245Z,196
2017-04-27T10:46:13.987Z,244
2017-04-27T10:47:26.983Z,272
2017-04-27T10:48:39.728Z,336
2017-04-27T10:49:52.473Z,360
2017-04-27T10:51:05.227Z,380
2017-04-27T10:52:32.053Z,372
2017-04-27T10:53:44.323Z,344
2017-04-27T10:54:57.071Z,328
2017-04-27T10:56:09.338Z,328
2017-04-27T10:57:21.604Z,320
2017-04-27T10:58:33.872Z,352
2017-04-27T10:59:46.137Z,352
2017-04-27T11:00:58.881Z,340
2017-04-27T11:02:11.656Z,312
2017-04-27T11:03:24.646Z,236
2017-04-27T11:04:51.506Z,168
2017-04-27T11:06:03.777Z,148
2017-04-27T11:07:15.560Z,132
2017-04-27T11:08:27.842Z,128
2017-04-27T11:09:40.588Z,124
2017-04-27T11:10:52.850Z,120
2017-04-27T11:12:05.594Z,160
2017-04-27T11:13:18.070Z,272
2017-04-27T11:14:30.820Z,268
2017-04-27T11:15:43.564Z,256
2017-04-27T11:16:56.302Z,252
2017-04-27T11:18:09.062Z,244
2017-04-27T11:19:21.335Z,248
2017-04-27T11:20:34.082Z,260
2017-04-27T11:21:46.831Z,292
2017-04-27T11:22:59.870Z,308
2017-04-27T11:24:11.664Z,316
2017-04-27T11:25:24.505Z,320
2017-04-27T11:26:37.389Z,336
2017-04-27T11:27:50.085Z,352
2017-04-27T11:29:02.966Z,356
2017-04-27T11:30:15.364Z,336
2017-04-27T11:31:28.244Z,296
2017-04-27T11:32:40.635Z,284
2017-04-27T11:33:53.517Z,300
2017-04-27T11:35:05.422Z,308
2017-04-27T11:36:18.297Z,304
2017-04-27T11:37:30.692Z,304
2017-04-27T11:39:12.739Z,300
2017-04-27T11:40:25.617Z,276
2017-04-27T11:41:37.515Z,248
2017-04-27T11:42:50.392Z,224
2017-04-27T11:44:03.273Z,200
2017-04-27T11:45:15.668Z,200
2017-04-27T11:46:28.059Z,216
2017-04-27T11:47:40.939Z,236
2017-04-27T11:48:54.068Z,260
2017-04-27T11:50:06.946Z,272
2017-04-27T11:51:19.825Z,268
2017-04-27T11:52:33.306Z,260
2017-04-27T11:53:45.707Z,260
2017-04-27T11:54:58.602Z,272
2017-04-27T11:56:11.482Z,288
2017-04-27T11:57:24.359Z,312
2017-04-27T11:58:36.751Z,332
2017-04-27T11:59:49.626Z,344
2017-04-27T12:01:02.502Z,332
2017-04-27T12:02:14.405Z,304
2017-04-27T12:03:27.287Z,276
2017-04-27T12:04:40.177Z,268
2017-04-27T12:05:52.573Z,264
2017-04-27T12:07:05.452Z,240
2017-04-27T12:08:17.841Z,208
2017-04-27T12:09:30.725Z,200
2017-04-27T12:10:42.543Z,184
2017-04-27T12:11:55.592Z,184
2017-04-27T12:13:08.335Z,200
2017-04-27T12:14:20.607Z,212
2017-04-27T12:15:33.354Z,204
2017-04-27T12:16:46.097Z,184
2017-04-27T12:17:58.843Z,168
2017-04-27T12:19:11.116Z,164
2017-04-27T12:20:23.382Z,168
2017-04-27T12:21:35.654Z,192
2017-04-27T12:22:48.737Z,228
2017-04-27T12:24:01.010Z,280
2017-04-27T12:25:13.272Z,320
2017-04-27T12:26:25.545Z,348
2017-04-27T12:27:38.587Z,380
2017-04-27T12:28:50.860Z,368
2017-04-27T12:30:03.602Z,400
2017-04-27T12:31:15.385Z,456
2017-04-27T12:32:27.174Z,484
2017-04-27T12:33:40.167Z,504
2017-04-27T12:34:52.922Z,396
2017-04-27T12:36:04.712Z,392
2017-04-27T12:37:16.982Z,360
2017-04-27T12:38:29.724Z,296
2017-04-27T12:39:42.469Z,256
2017-04-27T12:40:55.220Z,248
2017-04-27T12:42:07.977Z,280
2017-04-27T12:43:20.724Z,316
2017-04-27T12:44:33.621Z,344
2017-04-27T12:45:46.373Z,400
2017-04-27T12:46:59.127Z,464
2017-04-27T12:48:11.869Z,504
2017-04-27T12:49:24.153Z,548
2017-04-27T12:50:37.146Z,508
2017-04-27T12:51:49.887Z,512
2017-04-27T12:53:02.628Z,520
2017-04-27T12:54:15.374Z,444
2017-04-27T12:55:42.199Z,536
2017-04-27T12:56:54.946Z,540
2017-04-27T12:58:07.215Z,540
2017-04-27T12:59:19.480Z,512
2017-04-27T13:00:32.228Z,536
2017-04-27T13:01:44.972Z,552
2017-04-27T13:02:57.718Z,584
2017-04-27T13:04:10.460Z,532
2017-04-27T13:05:22.723Z,496
2017-04-27T13:06:49.548Z,408
2017-04-27T13:08:01.814Z,368
2017-04-27T13:09:14.092Z,344
2017-04-27T13:10:26.608Z,388
2017-04-27T13:11:39.469Z,376
2017-04-27T13:12:52.392Z,400
2017-04-27T13:14:05.319Z,364
2017-04-27T13:15:17.262Z,348
2017-04-27T13:16:29.947Z,332
2017-04-27T13:17:42.871Z,312
2017-04-27T13:18:55.311Z,300
2017-04-27T13:20:08.236Z,288
2017-04-27T13:21:21.178Z,300
2017-04-27T13:22:34.352Z,340
2017-04-27T13:23:47.279Z,356
2017-04-27T13:25:00.208Z,376
2017-04-27T13:26:13.128Z,368
2017-04-27T13:27:26.312Z,380
2017-04-27T13:28:39.238Z,388
2017-04-27T13:29:52.175Z,392
2017-04-27T13:31:04.130Z,376
2017-04-27T13:32:16.561Z,372
2017-04-27T13:33:28.999Z,356
2017-04-27T13:34:41.921Z,348
2017-04-27T13:35:54.844Z,332
2017-04-27T13:37:07.278Z,324
2017-04-27T13:38:20.236Z,320
2017-04-27T13:39:33.161Z,296
2017-04-27T13:40:45.616Z,272
2017-04-27T13:41:58.541Z,248
2017-04-27T13:43:10.972Z,232
2017-04-27T13:44:22.915Z,236
2017-04-27T13:45:35.721Z,236
2017-04-27T13:46:48.470Z,236
2017-04-27T13:48:01.211Z,228
2017-04-27T13:49:13.959Z,236
2017-04-27T13:50:26.224Z,252
2017-04-27T13:51:38.966Z,276
2017-04-27T13:52:51.238Z,300
2017-04-27T13:54:03.989Z,308
2017-04-27T13:55:16.263Z,296
2017-04-27T13:56:29.000Z,312
2017-04-27T13:57:41.262Z,324
2017-04-27T13:59:08.133Z,356
2017-04-27T14:00:20.879Z,388
2017-04-27T14:01:33.623Z,444
2017-04-27T14:02:46.369Z,492
2017-04-27T14:03:58.643Z,520
2017-04-27T14:05:11.389Z,616
2017-04-27T14:06:24.133Z,612
2017-04-27T14:07:36.877Z,592
2017-04-27T14:08:49.631Z,596
2017-04-27T14:10:02.377Z,644
2017-04-27T14:11:14.637Z,716
2017-04-27T14:12:27.378Z,732
2017-04-27T14:13:40.118Z,692
2017-04-27T14:14:52.861Z,624
2017-04-27T14:16:04.752Z,616
2017-04-27T14:17:17.020Z,628
2017-04-27T14:18:29.765Z,620
2017-04-27T14:19:42.027Z,644
2017-04-27T14:20:54.780Z,696
2017-04-27T14:22:07.411Z,724
2017-04-27T14:23:18.369Z,760
2017-04-27T14:24:30.802Z,780
2017-04-27T14:25:43.326Z,820
2017-04-27T14:26:56.389Z,872
2017-04-27T14:28:09.456Z,860
2017-04-27T14:29:22.522Z,892
2017-04-27T14:30:35.589Z,1208
2017-04-27T14:31:48.403Z,1176
2017-04-27T14:33:01.465Z,1132
2017-04-27T14:34:14.529Z,1332
2017-04-27T14:35:27.591Z,1388
2017-04-27T14:36:40.168Z,1188
2017-04-27T14:37:53.231Z,1156
2017-04-27T14:39:06.286Z,1076
2017-04-27T14:40:18.345Z,1032
2017-04-27T14:41:31.407Z,904
2017-04-27T14:42:44.468Z,704
2017-04-27T14:43:57.041Z,676
2017-04-27T14:45:09.307Z,628
2017-04-27T14:46:22.368Z,656
2017-04-27T14:47:35.434Z,568
2017-04-27T14:48:47.996Z,520
2017-04-27T14:50:01.074Z,512
2017-04-27T14:51:13.640Z,652
2017-04-27T14:52:26.703Z,696
2017-04-27T14:53:39.764Z,704
2017-04-27T14:54:52.829Z,728
2017-04-27T14:56:05.794Z,684
2017-04-27T14:57:18.678Z,564
2017-04-27T14:58:31.070Z,492
2017-04-27T14:59:44.253Z,464
2017-04-27T15:00:56.649Z,424
2017-04-27T15:02:09.528Z,432
2017-04-27T15:03:21.931Z,400
2017-04-27T15:04:34.812Z,392
2017-04-27T15:05:47.204Z,396
2017-04-27T15:06:59.596Z,348
2017-04-27T15:08:11.989Z,316
2017-04-27T15:09:24.873Z,312
2017-04-27T15:10:38.051Z,320
2017-04-27T15:11:49.951Z,324
2017-04-27T15:13:02.835Z,308
2017-04-27T15:14:14.750Z,272
2017-04-27T15:15:27.627Z,192
2017-04-27T15:16:40.908Z,144
2017-04-27T15:17:53.789Z,120
2017-04-27T15:19:06.668Z,128
2017-04-27T15:20:19.550Z,132
2017-04-27T15:21:31.945Z,108
2017-04-27T15:22:44.826Z,168
2017-04-27T15:23:57.710Z,168
2017-04-27T15:25:10.098Z,196
2017-04-27T15:26:22.492Z,240
2017-04-27T15:27:35.376Z,252
2017-04-27T15:28:48.266Z,256
2017-04-27T15:30:01.161Z,240
2017-04-27T15:31:13.552Z,228
2017-04-27T15:32:26.431Z,224
2017-04-27T15:33:39.323Z,204
2017-04-27T15:34:52.449Z,196
2017-04-27T15:36:05.330Z,200
2017-04-27T15:37:17.726Z,208
2017-04-27T15:38:30.607Z,208
2017-04-27T15:39:43.481Z,200
2017-04-27T15:40:56.620Z,196
2017-04-27T15:42:09.022Z,204
2017-04-27T15:43:21.416Z,220
2017-04-27T15:44:34.293Z,244
2017-04-27T15:45:47.472Z,248
2017-04-27T15:47:00.365Z,264
2017-04-27T15:48:11.779Z,268
2017-04-27T15:49:24.659Z,284
2017-04-27T15:50:37.055Z,272
2017-04-27T15:51:50.184Z,248
2017-04-27T15:53:02.578Z,240
2017-04-27T15:54:15.457Z,248
2017-04-27T15:55:27.784Z,240
2017-04-27T15:56:40.771Z,208
2017-04-27T15:57:53.513Z,188
2017-04-27T15:59:06.259Z,184
2017-04-27T16:00:18.524Z,188
2017-04-27T16:01:30.787Z,188
2017-04-27T16:02:43.058Z,196
2017-04-27T16:03:55.805Z,196
2017-04-27T16:05:08.549Z,188
2017-04-27T16:06:20.811Z,180
2017-04-27T16:07:33.801Z,172
2017-04-27T16:08:46.084Z,168
2017-04-27T16:09:58.848Z,168
2017-04-27T16:11:10.660Z,172
2017-04-27T16:12:23.404Z,188
2017-04-27T16:13:35.925Z,200
2017-04-27T16:14:48.188Z,208
2017-04-27T16:16:00.449Z,232
2017-04-27T16:17:13.188Z,244
2017-04-27T16:18:25.456Z,248
2017-04-27T16:19:37.725Z,244
2017-04-27T16:20:50.468Z,232
2017-04-27T16:22:03.210Z,224
2017-04-27T16:23:15.957Z,212
2017-04-27T16:24:28.706Z,220
2017-04-27T16:25:41.450Z,220
2017-04-27T16:26:53.719Z,212
2017-04-27T16:28:05.986Z,212
2017-04-27T16:29:18.744Z,216
2017-04-27T16:30:31.478Z,212
2017-04-27T16:31:44.217Z,224
2017-04-27T16:32:56.964Z,232
2017-04-27T16:34:09.710Z,232
2017-04-27T16:35:21.502Z,240
2017-04-27T16:36:34.244Z,260
2017-04-27T16:37:46.993Z,280
2017-04-27T16:38:59.741Z,284
2017-04-27T16:40:12.010Z,300
2017-04-27T16:41:24.285Z,316
2017-04-27T16:42:36.549Z,308
2017-04-27T16:43:49.289Z,280
2017-04-27T16:45:02.041Z,252
2017-04-27T16:46:14.304Z,228
2017-04-27T16:47:27.045Z,216
2017-04-27T16:48:39.310Z,200
2017-04-27T16:49:51.577Z,192
2017-04-27T16:51:04.566Z,192
2017-04-27T16:52:17.318Z,192
2017-04-27T16:53:29.589Z,204
2017-04-27T16:54:42.338Z,216
2017-04-27T16:55:55.080Z,208
2017-04-27T16:57:07.821Z,180
2017-04-27T16:58:20.090Z,160
2017-04-27T16:59:32.834Z,144
2017-04-27T17:00:45.829Z,152
2017-04-27T17:01:58.110Z,152
2017-04-27T17:03:09.895Z,152
2017-04-27T17:04:21.686Z,140
2017-04-27T17:05:34.433Z,128
2017-04-27T17:06:47.429Z,120
2017-04-27T17:08:00.178Z,116
2017-04-27T17:09:12.926Z,112
2017-04-27T17:10:25.675Z,104
2017-04-27T17:11:38.416Z,100
2017-04-27T17:12:51.289Z,104
2017-04-27T17:14:04.210Z,104